sensor_id;sensor_type;location;lat;lon;timestamp;temperature;humidity
13440;DHT22;6792;57.698;11.946;2023-08-07T00:00:09;20.00;56.30
13440;DHT22;6792;57.698;11.946;2023-08-07T00:02:38;20.00;56.30
13440;DHT22;6792;57.698;11.946;2023-08-07T00:05:08;20.00;56.40
13440;DHT22;6792;57.698;11.946;2023-08-07T00:07:37;20.00;56.30
13440;DHT22;6792;57.698;11.946;2023-08-07T00:10:08;20.10;56.40
13440;DHT22;6792;57.698;11.946;2023-08-07T00:12:37;20.10;56.40
13440;DHT22;6792;57.698;11.946;2023-08-07T00:15:09;20.10;56.40
13440;DHT22;6792;57.698;11.946;2023-08-07T00:17:38;20.10;56.40
13440;DHT22;6792;57.698;11.946;2023-08-07T00:20:09;20.00;56.40
13440;DHT22;6792;57.698;11.946;2023-08-07T00:22:39;20.00;55.90
13440;DHT22;6792;57.698;11.946;2023-08-07T00:25:09;20.00;56.60
13440;DHT22;6792;57.698;11.946;2023-08-07T00:27:38;20.00;56.60
13440;DHT22;6792;57.698;11.946;2023-08-07T00:30:10;20.00;56.60
13440;DHT22;6792;57.698;11.946;2023-08-07T00:32:39;20.00;56.60
13440;DHT22;6792;57.698;11.946;2023-08-07T00:35:09;20.00;56.70
13440;DHT22;6792;57.698;11.946;2023-08-07T00:37:38;20.00;56.70
13440;DHT22;6792;57.698;11.946;2023-08-07T00:40:10;20.00;56.10
13440;DHT22;6792;57.698;11.946;2023-08-07T00:42:39;20.00;56.70
13440;DHT22;6792;57.698;11.946;2023-08-07T00:45:10;20.00;56.70
13440;DHT22;6792;57.698;11.946;2023-08-07T00:47:39;20.00;56.70
13440;DHT22;6792;57.698;11.946;2023-08-07T00:50:09;20.00;56.70
13440;DHT22;6792;57.698;11.946;2023-08-07T00:52:39;20.10;56.80
13440;DHT22;6792;57.698;11.946;2023-08-07T00:55:09;20.00;56.80
13440;DHT22;6792;57.698;11.946;2023-08-07T00:57:38;20.10;56.80
13440;DHT22;6792;57.698;11.946;2023-08-07T01:00:10;20.10;56.90
13440;DHT22;6792;57.698;11.946;2023-08-07T01:02:39;20.10;56.40
13440;DHT22;6792;57.698;11.946;2023-08-07T01:05:09;20.00;56.80
13440;DHT22;6792;57.698;11.946;2023-08-07T01:07:38;20.10;57.00
13440;DHT22;6792;57.698;11.946;2023-08-07T01:10:08;20.00;56.40
13440;DHT22;6792;57.698;11.946;2023-08-07T01:12:41;20.10;57.60
13440;DHT22;6792;57.698;11.946;2023-08-07T01:15:12;20.10;57.00
13440;DHT22;6792;57.698;11.946;2023-08-07T01:17:43;20.10;57.00
13440;DHT22;6792;57.698;11.946;2023-08-07T01:20:13;20.10;56.60
13440;DHT22;6792;57.698;11.946;2023-08-07T01:22:42;20.10;57.20
13440;DHT22;6792;57.698;11.946;2023-08-07T01:25:11;20.10;57.20
13440;DHT22;6792;57.698;11.946;2023-08-07T01:27:44;20.10;57.20
13440;DHT22;6792;57.698;11.946;2023-08-07T01:30:19;20.10;57.20
13440;DHT22;6792;57.698;11.946;2023-08-07T01:32:57;20.00;56.70
13440;DHT22;6792;57.698;11.946;2023-08-07T01:35:30;20.00;56.80
13440;DHT22;6792;57.698;11.946;2023-08-07T01:38:00;20.00;56.80
13440;DHT22;6792;57.698;11.946;2023-08-07T01:40:31;20.00;56.80
13440;DHT22;6792;57.698;11.946;2023-08-07T01:43:00;20.00;56.90
13440;DHT22;6792;57.698;11.946;2023-08-07T01:45:30;20.00;56.80
13440;DHT22;6792;57.698;11.946;2023-08-07T01:48:00;20.00;57.40
13440;DHT22;6792;57.698;11.946;2023-08-07T01:50:30;20.10;57.50
13440;DHT22;6792;57.698;11.946;2023-08-07T01:53:00;20.10;57.50
13440;DHT22;6792;57.698;11.946;2023-08-07T01:55:30;20.00;57.00
13440;DHT22;6792;57.698;11.946;2023-08-07T01:57:59;20.00;57.60
13440;DHT22;6792;57.698;11.946;2023-08-07T02:00:28;20.00;57.50
13440;DHT22;6792;57.698;11.946;2023-08-07T02:02:57;20.10;57.70
13440;DHT22;6792;57.698;11.946;2023-08-07T02:05:27;20.00;57.00
13440;DHT22;6792;57.698;11.946;2023-08-07T02:07:56;20.10;57.70
13440;DHT22;6792;57.698;11.946;2023-08-07T02:10:25;20.00;57.70
13440;DHT22;6792;57.698;11.946;2023-08-07T02:12:54;20.00;57.70
13440;DHT22;6792;57.698;11.946;2023-08-07T02:15:23;20.10;57.80
13440;DHT22;6792;57.698;11.946;2023-08-07T02:17:52;20.10;57.80
13440;DHT22;6792;57.698;11.946;2023-08-07T02:20:21;20.00;57.80
13440;DHT22;6792;57.698;11.946;2023-08-07T02:22:51;20.00;57.30
13440;DHT22;6792;57.698;11.946;2023-08-07T02:25:20;20.10;57.90
13440;DHT22;6792;57.698;11.946;2023-08-07T02:27:52;20.00;57.90
13440;DHT22;6792;57.698;11.946;2023-08-07T02:30:24;20.00;57.90
13440;DHT22;6792;57.698;11.946;2023-08-07T02:32:53;20.00;58.00
13440;DHT22;6792;57.698;11.946;2023-08-07T02:35:22;20.00;58.10
13440;DHT22;6792;57.698;11.946;2023-08-07T02:37:52;20.10;58.10
13440;DHT22;6792;57.698;11.946;2023-08-07T02:40:21;20.10;58.10
13440;DHT22;6792;57.698;11.946;2023-08-07T02:42:52;20.10;58.10
13440;DHT22;6792;57.698;11.946;2023-08-07T02:45:22;20.10;58.10
13440;DHT22;6792;57.698;11.946;2023-08-07T02:47:53;20.10;58.10
13440;DHT22;6792;57.698;11.946;2023-08-07T02:50:22;20.10;58.10
13440;DHT22;6792;57.698;11.946;2023-08-07T02:52:52;20.10;58.10
13440;DHT22;6792;57.698;11.946;2023-08-07T02:55:21;20.10;58.20
13440;DHT22;6792;57.698;11.946;2023-08-07T02:57:53;20.10;58.70
13440;DHT22;6792;57.698;11.946;2023-08-07T03:00:22;20.20;58.20
13440;DHT22;6792;57.698;11.946;2023-08-07T03:02:52;20.20;58.20
13440;DHT22;6792;57.698;11.946;2023-08-07T03:05:22;20.20;58.20
13440;DHT22;6792;57.698;11.946;2023-08-07T03:07:51;20.20;58.20
13440;DHT22;6792;57.698;11.946;2023-08-07T03:10:22;20.20;57.70
13440;DHT22;6792;57.698;11.946;2023-08-07T03:12:51;20.20;58.20
13440;DHT22;6792;57.698;11.946;2023-08-07T03:15:23;20.20;58.30
13440;DHT22;6792;57.698;11.946;2023-08-07T03:17:52;20.20;58.30
13440;DHT22;6792;57.698;11.946;2023-08-07T03:20:21;20.10;58.80
13440;DHT22;6792;57.698;11.946;2023-08-07T03:22:50;20.10;58.30
13440;DHT22;6792;57.698;11.946;2023-08-07T03:25:20;20.10;58.30
13440;DHT22;6792;57.698;11.946;2023-08-07T03:27:53;20.20;58.30
13440;DHT22;6792;57.698;11.946;2023-08-07T03:30:22;20.20;58.30
13440;DHT22;6792;57.698;11.946;2023-08-07T03:32:52;20.20;58.30
13440;DHT22;6792;57.698;11.946;2023-08-07T03:35:24;20.20;58.30
13440;DHT22;6792;57.698;11.946;2023-08-07T03:37:53;20.20;58.30
13440;DHT22;6792;57.698;11.946;2023-08-07T03:40:22;20.20;58.30
13440;DHT22;6792;57.698;11.946;2023-08-07T03:42:51;20.20;58.30
13440;DHT22;6792;57.698;11.946;2023-08-07T03:45:20;20.20;57.80
13440;DHT22;6792;57.698;11.946;2023-08-07T03:47:50;20.20;58.30
13440;DHT22;6792;57.698;11.946;2023-08-07T03:50:20;20.30;58.50
13440;DHT22;6792;57.698;11.946;2023-08-07T03:52:52;20.30;58.40
13440;DHT22;6792;57.698;11.946;2023-08-07T03:55:24;20.30;58.40
13440;DHT22;6792;57.698;11.946;2023-08-07T03:57:53;20.30;58.30
13440;DHT22;6792;57.698;11.946;2023-08-07T04:00:22;20.40;58.30
13440;DHT22;6792;57.698;11.946;2023-08-07T04:02:51;20.40;58.30
13440;DHT22;6792;57.698;11.946;2023-08-07T04:05:21;20.40;58.30
13440;DHT22;6792;57.698;11.946;2023-08-07T04:07:52;20.40;58.30
13440;DHT22;6792;57.698;11.946;2023-08-07T04:10:23;20.40;57.90
13440;DHT22;6792;57.698;11.946;2023-08-07T04:12:52;20.40;58.30
13440;DHT22;6792;57.698;11.946;2023-08-07T04:15:22;20.40;58.30
13440;DHT22;6792;57.698;11.946;2023-08-07T04:17:54;20.40;58.30
13440;DHT22;6792;57.698;11.946;2023-08-07T04:20:24;20.40;57.80
13440;DHT22;6792;57.698;11.946;2023-08-07T04:22:53;20.40;58.40
13440;DHT22;6792;57.698;11.946;2023-08-07T04:25:22;20.40;58.40
13440;DHT22;6792;57.698;11.946;2023-08-07T04:27:51;20.40;58.40
13440;DHT22;6792;57.698;11.946;2023-08-07T04:30:20;20.40;58.40
13440;DHT22;6792;57.698;11.946;2023-08-07T04:32:50;20.40;58.70
13440;DHT22;6792;57.698;11.946;2023-08-07T04:35:19;20.40;58.40
13440;DHT22;6792;57.698;11.946;2023-08-07T04:37:48;20.40;58.30
13440;DHT22;6792;57.698;11.946;2023-08-07T04:40:21;20.40;58.30
13440;DHT22;6792;57.698;11.946;2023-08-07T04:42:50;20.40;57.80
13440;DHT22;6792;57.698;11.946;2023-08-07T04:45:20;20.40;58.40
13440;DHT22;6792;57.698;11.946;2023-08-07T04:47:49;20.40;58.40
13440;DHT22;6792;57.698;11.946;2023-08-07T04:50:18;20.40;58.30
13440;DHT22;6792;57.698;11.946;2023-08-07T04:52:47;20.50;58.40
13440;DHT22;6792;57.698;11.946;2023-08-07T04:55:17;20.50;58.90
13440;DHT22;6792;57.698;11.946;2023-08-07T04:57:46;20.50;58.40
13440;DHT22;6792;57.698;11.946;2023-08-07T05:00:17;20.50;58.40
13440;DHT22;6792;57.698;11.946;2023-08-07T05:02:46;20.50;58.30
13440;DHT22;6792;57.698;11.946;2023-08-07T05:05:16;20.50;58.30
13440;DHT22;6792;57.698;11.946;2023-08-07T05:07:51;20.60;58.30
13440;DHT22;6792;57.698;11.946;2023-08-07T05:10:25;20.60;58.30
13440;DHT22;6792;57.698;11.946;2023-08-07T05:12:55;20.60;57.70
13440;DHT22;6792;57.698;11.946;2023-08-07T05:15:24;20.60;58.20
13440;DHT22;6792;57.698;11.946;2023-08-07T05:17:56;20.60;58.80
13440;DHT22;6792;57.698;11.946;2023-08-07T05:20:25;20.60;58.20
13440;DHT22;6792;57.698;11.946;2023-08-07T05:22:54;20.60;58.20
13440;DHT22;6792;57.698;11.946;2023-08-07T05:25:26;20.60;58.20
13440;DHT22;6792;57.698;11.946;2023-08-07T05:27:56;20.60;58.20
13440;DHT22;6792;57.698;11.946;2023-08-07T05:30:25;20.60;58.20
13440;DHT22;6792;57.698;11.946;2023-08-07T05:35:34;20.70;57.70
13440;DHT22;6792;57.698;11.946;2023-08-07T05:38:04;20.70;58.20
13440;DHT22;6792;57.698;11.946;2023-08-07T05:40:33;20.70;58.20
13440;DHT22;6792;57.698;11.946;2023-08-07T05:43:04;20.70;58.30
13440;DHT22;6792;57.698;11.946;2023-08-07T05:45:33;20.70;58.20
13440;DHT22;6792;57.698;11.946;2023-08-07T05:48:02;20.70;58.20
13440;DHT22;6792;57.698;11.946;2023-08-07T05:50:32;20.70;58.30
13440;DHT22;6792;57.698;11.946;2023-08-07T05:53:01;20.80;58.30
13440;DHT22;6792;57.698;11.946;2023-08-07T05:55:30;20.80;58.30
13440;DHT22;6792;57.698;11.946;2023-08-07T05:58:00;20.80;58.30
13440;DHT22;6792;57.698;11.946;2023-08-07T06:00:29;20.80;58.30
13440;DHT22;6792;57.698;11.946;2023-08-07T06:02:58;20.80;58.30
13440;DHT22;6792;57.698;11.946;2023-08-07T06:05:28;20.80;58.30
13440;DHT22;6792;57.698;11.946;2023-08-07T06:07:57;20.80;58.30
13440;DHT22;6792;57.698;11.946;2023-08-07T06:10:27;20.80;57.80
13440;DHT22;6792;57.698;11.946;2023-08-07T06:12:56;20.80;58.40
13440;DHT22;6792;57.698;11.946;2023-08-07T06:15:25;20.80;58.40
13440;DHT22;6792;57.698;11.946;2023-08-07T06:17:55;20.80;57.90
13440;DHT22;6792;57.698;11.946;2023-08-07T06:20:24;20.80;58.40
13440;DHT22;6792;57.698;11.946;2023-08-07T06:22:53;20.90;58.50
13440;DHT22;6792;57.698;11.946;2023-08-07T06:25:22;20.80;58.40
13440;DHT22;6792;57.698;11.946;2023-08-07T06:27:52;20.90;58.50
13440;DHT22;6792;57.698;11.946;2023-08-07T06:30:21;20.90;58.40
13440;DHT22;6792;57.698;11.946;2023-08-07T06:32:52;20.90;58.40
13440;DHT22;6792;57.698;11.946;2023-08-07T06:35:21;20.90;58.40
13440;DHT22;6792;57.698;11.946;2023-08-07T06:37:50;20.90;58.40
13440;DHT22;6792;57.698;11.946;2023-08-07T06:43:00;21.00;58.50
13440;DHT22;6792;57.698;11.946;2023-08-07T06:45:29;21.00;58.50
13440;DHT22;6792;57.698;11.946;2023-08-07T06:47:58;21.00;58.50
13440;DHT22;6792;57.698;11.946;2023-08-07T06:50:28;21.00;58.50
13440;DHT22;6792;57.698;11.946;2023-08-07T06:52:57;21.00;58.60
13440;DHT22;6792;57.698;11.946;2023-08-07T06:55:26;21.10;58.50
13440;DHT22;6792;57.698;11.946;2023-08-07T06:57:56;21.10;58.50
13440;DHT22;6792;57.698;11.946;2023-08-07T07:00:25;21.10;58.50
13440;DHT22;6792;57.698;11.946;2023-08-07T07:02:54;21.10;58.50
13440;DHT22;6792;57.698;11.946;2023-08-07T07:05:23;21.10;58.50
13440;DHT22;6792;57.698;11.946;2023-08-07T07:07:52;21.20;58.50
13440;DHT22;6792;57.698;11.946;2023-08-07T07:10:22;21.20;58.40
13440;DHT22;6792;57.698;11.946;2023-08-07T07:12:51;21.20;58.40
13440;DHT22;6792;57.698;11.946;2023-08-07T07:15:21;21.20;57.90
13440;DHT22;6792;57.698;11.946;2023-08-07T07:17:55;21.20;58.40
13440;DHT22;6792;57.698;11.946;2023-08-07T07:20:26;21.20;57.90
13440;DHT22;6792;57.698;11.946;2023-08-07T07:22:59;21.30;58.50
13440;DHT22;6792;57.698;11.946;2023-08-07T07:25:34;21.30;59.10
13440;DHT22;6792;57.698;11.946;2023-08-07T07:28:05;21.30;57.90
13440;DHT22;6792;57.698;11.946;2023-08-07T07:30:40;21.30;58.50
13440;DHT22;6792;57.698;11.946;2023-08-07T07:33:11;21.30;58.50
13440;DHT22;6792;57.698;11.946;2023-08-07T07:35:41;21.30;58.50
13440;DHT22;6792;57.698;11.946;2023-08-07T07:38:11;21.30;58.60
13440;DHT22;6792;57.698;11.946;2023-08-07T07:40:41;21.30;58.50
13440;DHT22;6792;57.698;11.946;2023-08-07T07:43:10;21.40;58.50
13440;DHT22;6792;57.698;11.946;2023-08-07T07:45:40;21.30;58.50
13440;DHT22;6792;57.698;11.946;2023-08-07T07:48:09;21.40;58.50
13440;DHT22;6792;57.698;11.946;2023-08-07T07:50:39;21.40;58.50
13440;DHT22;6792;57.698;11.946;2023-08-07T07:53:08;21.40;58.50
13440;DHT22;6792;57.698;11.946;2023-08-07T07:55:37;21.40;58.50
13440;DHT22;6792;57.698;11.946;2023-08-07T07:58:06;21.40;58.50
13440;DHT22;6792;57.698;11.946;2023-08-07T08:00:36;21.40;58.60
13440;DHT22;6792;57.698;11.946;2023-08-07T08:03:05;21.40;58.60
13440;DHT22;6792;57.698;11.946;2023-08-07T08:05:34;21.40;58.60
13440;DHT22;6792;57.698;11.946;2023-08-07T08:08:03;21.50;58.60
13440;DHT22;6792;57.698;11.946;2023-08-07T08:10:33;21.50;58.70
13440;DHT22;6792;57.698;11.946;2023-08-07T08:13:02;21.50;58.70
13440;DHT22;6792;57.698;11.946;2023-08-07T08:15:32;21.50;58.60
13440;DHT22;6792;57.698;11.946;2023-08-07T08:18:01;21.50;58.60
13440;DHT22;6792;57.698;11.946;2023-08-07T08:20:31;21.60;58.70
13440;DHT22;6792;57.698;11.946;2023-08-07T08:23:00;21.60;58.10
13440;DHT22;6792;57.698;11.946;2023-08-07T08:25:30;21.60;58.60
13440;DHT22;6792;57.698;11.946;2023-08-07T08:28:00;21.60;58.60
13440;DHT22;6792;57.698;11.946;2023-08-07T08:30:29;21.60;58.10
13440;DHT22;6792;57.698;11.946;2023-08-07T08:32:58;21.60;58.60
13440;DHT22;6792;57.698;11.946;2023-08-07T08:35:27;21.60;58.60
13440;DHT22;6792;57.698;11.946;2023-08-07T08:37:58;21.70;58.70
13440;DHT22;6792;57.698;11.946;2023-08-07T08:40:27;21.70;58.80
13440;DHT22;6792;57.698;11.946;2023-08-07T08:42:57;21.70;58.60
13440;DHT22;6792;57.698;11.946;2023-08-07T08:45:28;21.70;58.70
13440;DHT22;6792;57.698;11.946;2023-08-07T08:48:02;21.70;58.70
13440;DHT22;6792;57.698;11.946;2023-08-07T08:50:33;21.70;58.20
13440;DHT22;6792;57.698;11.946;2023-08-07T08:53:03;21.70;58.70
13440;DHT22;6792;57.698;11.946;2023-08-07T08:55:33;21.70;58.70
13440;DHT22;6792;57.698;11.946;2023-08-07T08:58:02;21.70;58.70
13440;DHT22;6792;57.698;11.946;2023-08-07T09:00:31;21.70;58.70
13440;DHT22;6792;57.698;11.946;2023-08-07T09:03:02;21.70;58.70
13440;DHT22;6792;57.698;11.946;2023-08-07T09:05:32;21.80;58.80
13440;DHT22;6792;57.698;11.946;2023-08-07T09:08:02;21.80;58.70
13440;DHT22;6792;57.698;11.946;2023-08-07T09:10:33;21.80;59.30
13440;DHT22;6792;57.698;11.946;2023-08-07T09:13:04;21.80;58.70
13440;DHT22;6792;57.698;11.946;2023-08-07T09:15:37;21.80;58.20
13440;DHT22;6792;57.698;11.946;2023-08-07T09:18:07;21.80;59.40
13440;DHT22;6792;57.698;11.946;2023-08-07T09:20:39;21.80;58.80
13440;DHT22;6792;57.698;11.946;2023-08-07T09:23:08;21.90;58.90
13440;DHT22;6792;57.698;11.946;2023-08-07T09:25:37;21.90;58.90
13440;DHT22;6792;57.698;11.946;2023-08-07T09:28:06;21.90;58.80
13440;DHT22;6792;57.698;11.946;2023-08-07T09:30:38;21.90;58.90
13440;DHT22;6792;57.698;11.946;2023-08-07T09:33:09;21.90;58.80
13440;DHT22;6792;57.698;11.946;2023-08-07T09:35:40;22.00;59.00
13440;DHT22;6792;57.698;11.946;2023-08-07T09:38:09;22.00;58.90
13440;DHT22;6792;57.698;11.946;2023-08-07T09:40:42;22.00;59.00
13440;DHT22;6792;57.698;11.946;2023-08-07T09:43:13;22.00;58.90
13440;DHT22;6792;57.698;11.946;2023-08-07T09:45:43;22.00;58.90
13440;DHT22;6792;57.698;11.946;2023-08-07T09:48:12;22.10;59.00
13440;DHT22;6792;57.698;11.946;2023-08-07T09:50:43;22.10;58.90
13440;DHT22;6792;57.698;11.946;2023-08-07T09:53:13;22.10;58.90
13440;DHT22;6792;57.698;11.946;2023-08-07T09:55:43;22.10;59.00
13440;DHT22;6792;57.698;11.946;2023-08-07T09:58:13;22.20;59.00
13440;DHT22;6792;57.698;11.946;2023-08-07T10:00:42;22.20;59.00
13440;DHT22;6792;57.698;11.946;2023-08-07T10:03:11;22.20;59.00
13440;DHT22;6792;57.698;11.946;2023-08-07T10:05:42;22.20;59.00
13440;DHT22;6792;57.698;11.946;2023-08-07T10:08:12;22.20;58.90
13440;DHT22;6792;57.698;11.946;2023-08-07T10:10:41;22.20;59.00
13440;DHT22;6792;57.698;11.946;2023-08-07T10:13:13;22.20;59.00
13440;DHT22;6792;57.698;11.946;2023-08-07T10:15:42;22.20;58.90
13440;DHT22;6792;57.698;11.946;2023-08-07T10:18:11;22.20;59.00
13440;DHT22;6792;57.698;11.946;2023-08-07T10:20:41;22.20;59.00
13440;DHT22;6792;57.698;11.946;2023-08-07T10:23:12;22.30;58.50
13440;DHT22;6792;57.698;11.946;2023-08-07T10:25:49;22.30;59.10
13440;DHT22;6792;57.698;11.946;2023-08-07T10:28:23;22.30;59.00
13440;DHT22;6792;57.698;11.946;2023-08-07T10:30:53;22.30;59.00
13440;DHT22;6792;57.698;11.946;2023-08-07T10:33:23;22.30;59.00
13440;DHT22;6792;57.698;11.946;2023-08-07T10:35:53;22.30;59.00
13440;DHT22;6792;57.698;11.946;2023-08-07T10:38:24;22.30;59.00
13440;DHT22;6792;57.698;11.946;2023-08-07T10:41:05;22.30;59.00
13440;DHT22;6792;57.698;11.946;2023-08-07T10:43:38;22.30;59.10
13440;DHT22;6792;57.698;11.946;2023-08-07T10:46:11;22.30;59.10
13440;DHT22;6792;57.698;11.946;2023-08-07T10:48:44;22.30;59.10
13440;DHT22;6792;57.698;11.946;2023-08-07T10:51:15;22.30;59.10
13440;DHT22;6792;57.698;11.946;2023-08-07T10:53:46;22.30;59.10
13440;DHT22;6792;57.698;11.946;2023-08-07T10:56:29;22.30;59.10
13440;DHT22;6792;57.698;11.946;2023-08-07T10:58:51;22.30;58.60
13440;DHT22;6792;57.698;11.946;2023-08-07T11:01:39;22.30;59.10
13440;DHT22;6792;57.698;11.946;2023-08-07T11:04:00;22.40;59.20
13440;DHT22;6792;57.698;11.946;2023-08-07T11:06:31;22.40;59.30
13440;DHT22;6792;57.698;11.946;2023-08-07T11:09:02;22.40;59.30
13440;DHT22;6792;57.698;11.946;2023-08-07T11:11:37;22.40;59.20
13440;DHT22;6792;57.698;11.946;2023-08-07T11:14:07;22.40;58.70
13440;DHT22;6792;57.698;11.946;2023-08-07T11:16:36;22.50;59.30
13440;DHT22;6792;57.698;11.946;2023-08-07T11:19:06;22.50;59.30
13440;DHT22;6792;57.698;11.946;2023-08-07T11:21:37;22.50;59.30
13440;DHT22;6792;57.698;11.946;2023-08-07T11:24:11;22.50;59.30
13440;DHT22;6792;57.698;11.946;2023-08-07T11:26:39;22.50;59.30
13440;DHT22;6792;57.698;11.946;2023-08-07T11:29:15;22.60;59.30
13440;DHT22;6792;57.698;11.946;2023-08-07T11:31:44;22.60;59.40
13440;DHT22;6792;57.698;11.946;2023-08-07T11:34:15;22.60;59.40
13440;DHT22;6792;57.698;11.946;2023-08-07T11:36:45;22.60;59.40
13440;DHT22;6792;57.698;11.946;2023-08-07T11:39:15;22.60;59.40
13440;DHT22;6792;57.698;11.946;2023-08-07T11:41:46;22.60;59.50
13440;DHT22;6792;57.698;11.946;2023-08-07T11:44:15;22.60;59.50
13440;DHT22;6792;57.698;11.946;2023-08-07T11:46:45;22.60;59.50
13440;DHT22;6792;57.698;11.946;2023-08-07T11:49:14;22.60;59.50
13440;DHT22;6792;57.698;11.946;2023-08-07T11:51:43;22.60;59.60
13440;DHT22;6792;57.698;11.946;2023-08-07T11:54:14;22.70;60.20
13440;DHT22;6792;57.698;11.946;2023-08-07T11:56:45;22.70;59.60
13440;DHT22;6792;57.698;11.946;2023-08-07T11:59:16;22.70;59.60
13440;DHT22;6792;57.698;11.946;2023-08-07T12:01:47;22.70;59.60
13440;DHT22;6792;57.698;11.946;2023-08-07T12:04:17;22.70;59.70
13440;DHT22;6792;57.698;11.946;2023-08-07T12:06:54;22.80;59.70
13440;DHT22;6792;57.698;11.946;2023-08-07T12:09:24;22.80;59.70
13440;DHT22;6792;57.698;11.946;2023-08-07T12:11:57;22.80;59.70
13440;DHT22;6792;57.698;11.946;2023-08-07T12:14:30;22.80;59.70
13440;DHT22;6792;57.698;11.946;2023-08-07T12:17:01;22.80;59.70
13440;DHT22;6792;57.698;11.946;2023-08-07T12:19:38;22.90;59.80
13440;DHT22;6792;57.698;11.946;2023-08-07T12:22:10;22.90;59.80
13440;DHT22;6792;57.698;11.946;2023-08-07T12:24:39;22.80;59.80
13440;DHT22;6792;57.698;11.946;2023-08-07T12:27:09;22.90;59.90
13440;DHT22;6792;57.698;11.946;2023-08-07T12:29:39;22.90;59.90
13440;DHT22;6792;57.698;11.946;2023-08-07T12:32:09;22.90;59.90
13440;DHT22;6792;57.698;11.946;2023-08-07T12:34:38;22.90;59.90
13440;DHT22;6792;57.698;11.946;2023-08-07T12:37:08;23.00;59.90
13440;DHT22;6792;57.698;11.946;2023-08-07T12:39:37;22.90;59.90
13440;DHT22;6792;57.698;11.946;2023-08-07T12:42:07;23.00;59.90
13440;DHT22;6792;57.698;11.946;2023-08-07T12:44:36;23.00;59.40
13440;DHT22;6792;57.698;11.946;2023-08-07T12:47:06;23.00;60.00
13440;DHT22;6792;57.698;11.946;2023-08-07T12:49:35;23.00;60.00
13440;DHT22;6792;57.698;11.946;2023-08-07T12:52:06;23.00;60.00
13440;DHT22;6792;57.698;11.946;2023-08-07T12:54:35;23.00;60.00
13440;DHT22;6792;57.698;11.946;2023-08-07T12:57:05;23.00;60.00
13440;DHT22;6792;57.698;11.946;2023-08-07T12:59:34;23.00;60.00
13440;DHT22;6792;57.698;11.946;2023-08-07T13:02:04;23.00;60.10
13440;DHT22;6792;57.698;11.946;2023-08-07T13:04:33;23.10;60.10
13440;DHT22;6792;57.698;11.946;2023-08-07T13:07:02;23.10;60.10
13440;DHT22;6792;57.698;11.946;2023-08-07T13:09:31;23.10;59.60
13440;DHT22;6792;57.698;11.946;2023-08-07T13:12:01;23.10;60.10
13440;DHT22;6792;57.698;11.946;2023-08-07T13:14:30;23.20;60.20
13440;DHT22;6792;57.698;11.946;2023-08-07T13:16:59;23.20;60.20
13440;DHT22;6792;57.698;11.946;2023-08-07T13:19:28;23.20;60.20
13440;DHT22;6792;57.698;11.946;2023-08-07T13:21:57;23.20;60.20
13440;DHT22;6792;57.698;11.946;2023-08-07T13:24:27;23.20;60.20
13440;DHT22;6792;57.698;11.946;2023-08-07T13:26:56;23.20;60.20
13440;DHT22;6792;57.698;11.946;2023-08-07T13:29:25;23.20;60.20
13440;DHT22;6792;57.698;11.946;2023-08-07T13:31:56;23.20;60.30
13440;DHT22;6792;57.698;11.946;2023-08-07T13:34:25;23.20;60.60
13440;DHT22;6792;57.698;11.946;2023-08-07T13:36:54;23.20;60.30
13440;DHT22;6792;57.698;11.946;2023-08-07T13:39:24;23.30;60.40
13440;DHT22;6792;57.698;11.946;2023-08-07T13:41:55;23.30;60.40
13440;DHT22;6792;57.698;11.946;2023-08-07T13:44:24;23.30;60.40
13440;DHT22;6792;57.698;11.946;2023-08-07T13:46:53;23.30;60.30
13440;DHT22;6792;57.698;11.946;2023-08-07T13:49:23;23.30;60.30
13440;DHT22;6792;57.698;11.946;2023-08-07T13:51:52;23.30;60.20
13440;DHT22;6792;57.698;11.946;2023-08-07T13:54:21;23.40;60.30
13440;DHT22;6792;57.698;11.946;2023-08-07T13:56:50;23.40;60.30
13440;DHT22;6792;57.698;11.946;2023-08-07T13:59:20;23.40;60.30
13440;DHT22;6792;57.698;11.946;2023-08-07T14:01:49;23.40;60.20
13440;DHT22;6792;57.698;11.946;2023-08-07T14:04:20;23.40;60.20
13440;DHT22;6792;57.698;11.946;2023-08-07T14:06:50;23.40;60.20
13440;DHT22;6792;57.698;11.946;2023-08-07T14:09:19;23.40;60.20
13440;DHT22;6792;57.698;11.946;2023-08-07T14:11:50;23.40;60.20
13440;DHT22;6792;57.698;11.946;2023-08-07T14:14:21;23.40;60.20
13440;DHT22;6792;57.698;11.946;2023-08-07T14:16:51;23.40;60.10
13440;DHT22;6792;57.698;11.946;2023-08-07T14:19:23;23.40;60.10
13440;DHT22;6792;57.698;11.946;2023-08-07T14:21:53;23.40;60.10
13440;DHT22;6792;57.698;11.946;2023-08-07T14:24:22;23.40;61.00
13440;DHT22;6792;57.698;11.946;2023-08-07T14:26:51;23.40;60.10
13440;DHT22;6792;57.698;11.946;2023-08-07T14:29:23;23.40;60.10
13440;DHT22;6792;57.698;11.946;2023-08-07T14:31:54;23.40;60.10
13440;DHT22;6792;57.698;11.946;2023-08-07T14:34:24;23.40;60.10
13440;DHT22;6792;57.698;11.946;2023-08-07T14:36:53;23.30;60.00
13440;DHT22;6792;57.698;11.946;2023-08-07T14:39:22;23.40;60.10
13440;DHT22;6792;57.698;11.946;2023-08-07T14:41:54;23.40;60.10
13440;DHT22;6792;57.698;11.946;2023-08-07T14:44:23;23.30;59.50
13440;DHT22;6792;57.698;11.946;2023-08-07T14:46:52;23.40;60.10
13440;DHT22;6792;57.698;11.946;2023-08-07T14:49:21;23.40;60.10
13440;DHT22;6792;57.698;11.946;2023-08-07T14:51:51;23.30;60.00
13440;DHT22;6792;57.698;11.946;2023-08-07T14:54:20;23.30;60.10
13440;DHT22;6792;57.698;11.946;2023-08-07T14:56:51;23.30;60.10
13440;DHT22;6792;57.698;11.946;2023-08-07T14:59:20;23.30;60.20
13440;DHT22;6792;57.698;11.946;2023-08-07T15:01:49;23.20;61.00
13440;DHT22;6792;57.698;11.946;2023-08-07T15:04:18;23.30;60.30
13440;DHT22;6792;57.698;11.946;2023-08-07T15:06:48;23.30;60.20
13440;DHT22;6792;57.698;11.946;2023-08-07T15:09:18;23.30;60.10
13440;DHT22;6792;57.698;11.946;2023-08-07T15:11:47;23.30;60.10
13440;DHT22;6792;57.698;11.946;2023-08-07T15:14:17;23.30;60.10
13440;DHT22;6792;57.698;11.946;2023-08-07T15:16:46;23.30;60.00
13440;DHT22;6792;57.698;11.946;2023-08-07T15:19:15;23.30;60.00
13440;DHT22;6792;57.698;11.946;2023-08-07T15:21:44;23.30;60.00
13440;DHT22;6792;57.698;11.946;2023-08-07T15:24:14;23.30;60.00
13440;DHT22;6792;57.698;11.946;2023-08-07T15:26:43;23.30;60.00
13440;DHT22;6792;57.698;11.946;2023-08-07T15:29:13;23.30;59.90
13440;DHT22;6792;57.698;11.946;2023-08-07T15:31:42;23.30;60.00
13440;DHT22;6792;57.698;11.946;2023-08-07T15:34:12;23.20;59.90
13440;DHT22;6792;57.698;11.946;2023-08-07T15:36:41;23.20;59.90
13440;DHT22;6792;57.698;11.946;2023-08-07T15:39:10;23.20;59.90
13440;DHT22;6792;57.698;11.946;2023-08-07T15:41:40;23.10;59.30
13440;DHT22;6792;57.698;11.946;2023-08-07T15:44:10;23.10;59.80
13440;DHT22;6792;57.698;11.946;2023-08-07T15:46:39;23.10;59.80
13440;DHT22;6792;57.698;11.946;2023-08-07T15:49:09;23.10;59.80
13440;DHT22;6792;57.698;11.946;2023-08-07T15:51:38;23.10;59.80